sensor_id;sensor_type;location;lat;lon;timestamp;temperature;humidity
65396;HTU21D;52004;45.136;39.010;2023-04-24T00:00:04;11.38;67.33
65396;HTU21D;52004;45.136;39.010;2023-04-24T00:02:37;11.37;67.33
65396;HTU21D;52004;45.136;39.010;2023-04-24T00:05:04;11.34;67.36
65396;HTU21D;52004;45.136;39.010;2023-04-24T00:07:31;11.34;67.39
65396;HTU21D;52004;45.136;39.010;2023-04-24T00:09:57;11.32;67.44
65396;HTU21D;52004;45.136;39.010;2023-04-24T00:12:23;11.33;67.43
65396;HTU21D;52004;45.136;39.010;2023-04-24T00:14:49;11.32;67.43
65396;HTU21D;52004;45.136;39.010;2023-04-24T00:17:15;11.32;67.48
65396;HTU21D;52004;45.136;39.010;2023-04-24T00:19:41;11.31;67.50
65396;HTU21D;52004;45.136;39.010;2023-04-24T00:22:07;11.32;67.49
65396;HTU21D;52004;45.136;39.010;2023-04-24T00:24:33;11.30;67.52
65396;HTU21D;52004;45.136;39.010;2023-04-24T00:26:59;11.30;67.58
65396;HTU21D;52004;45.136;39.010;2023-04-24T00:29:26;11.32;67.57
65396;HTU21D;52004;45.136;39.010;2023-04-24T00:31:52;11.32;67.55
65396;HTU21D;52004;45.136;39.010;2023-04-24T00:34:18;11.32;67.57
65396;HTU21D;52004;45.136;39.010;2023-04-24T00:36:44;11.32;67.57
65396;HTU21D;52004;45.136;39.010;2023-04-24T00:39:10;11.33;67.60
65396;HTU21D;52004;45.136;39.010;2023-04-24T00:41:36;11.33;67.59
65396;HTU21D;52004;45.136;39.010;2023-04-24T00:44:01;11.38;67.59
65396;HTU21D;52004;45.136;39.010;2023-04-24T00:46:28;11.38;67.55
65396;HTU21D;52004;45.136;39.010;2023-04-24T00:48:54;11.39;67.56
65396;HTU21D;52004;45.136;39.010;2023-04-24T00:51:21;11.39;67.54
65396;HTU21D;52004;45.136;39.010;2023-04-24T00:53:47;11.38;67.58
65396;HTU21D;52004;45.136;39.010;2023-04-24T00:56:13;11.38;67.59
65396;HTU21D;52004;45.136;39.010;2023-04-24T00:58:39;11.38;67.63
65396;HTU21D;52004;45.136;39.010;2023-04-24T01:01:05;0.00;67.65
65396;HTU21D;52004;45.136;39.010;2023-04-24T01:03:33;11.38;67.70
65396;HTU21D;52004;45.136;39.010;2023-04-24T01:05:59;11.37;67.74
65396;HTU21D;52004;45.136;39.010;2023-04-24T01:08:25;11.39;67.73
65396;HTU21D;52004;45.136;39.010;2023-04-24T01:10:52;11.38;67.73
65396;HTU21D;52004;45.136;39.010;2023-04-24T01:13:20;11.38;67.76
65396;HTU21D;52004;45.136;39.010;2023-04-24T01:15:46;11.38;67.81
65396;HTU21D;52004;45.136;39.010;2023-04-24T01:18:13;11.38;67.81
65396;HTU21D;52004;45.136;39.010;2023-04-24T01:20:40;11.39;67.87
65396;HTU21D;52004;45.136;39.010;2023-04-24T01:23:06;11.40;67.85
65396;HTU21D;52004;45.136;39.010;2023-04-24T01:25:33;11.42;67.87
65396;HTU21D;52004;45.136;39.010;2023-04-24T01:27:59;11.42;67.88
65396;HTU21D;52004;45.136;39.010;2023-04-24T01:30:26;11.44;67.89
65396;HTU21D;52004;45.136;39.010;2023-04-24T01:32:52;11.45;67.88
65396;HTU21D;52004;45.136;39.010;2023-04-24T01:35:18;11.45;67.88
65396;HTU21D;52004;45.136;39.010;2023-04-24T01:37:44;11.46;67.88
65396;HTU21D;52004;45.136;39.010;2023-04-24T01:40:10;11.47;67.88
65396;HTU21D;52004;45.136;39.010;2023-04-24T01:42:37;11.46;67.88
65396;HTU21D;52004;45.136;39.010;2023-04-24T01:45:03;11.46;67.92
65396;HTU21D;52004;45.136;39.010;2023-04-24T01:47:30;11.47;67.95
65396;HTU21D;52004;45.136;39.010;2023-04-24T01:49:56;11.47;67.95
65396;HTU21D;52004;45.136;39.010;2023-04-24T01:52:22;0.00;67.92
65396;HTU21D;52004;45.136;39.010;2023-04-24T01:54:48;11.48;67.97
65396;HTU21D;52004;45.136;39.010;2023-04-24T01:57:14;11.49;67.97
65396;HTU21D;52004;45.136;39.010;2023-04-24T01:59:41;11.48;67.96
65396;HTU21D;52004;45.136;39.010;2023-04-24T02:02:07;11.48;68.00
65396;HTU21D;52004;45.136;39.010;2023-04-24T02:04:34;11.48;68.06
65396;HTU21D;52004;45.136;39.010;2023-04-24T02:07:00;11.47;68.07
65396;HTU21D;52004;45.136;39.010;2023-04-24T02:09:26;11.48;68.10
65396;HTU21D;52004;45.136;39.010;2023-04-24T02:11:52;11.47;68.11
65396;HTU21D;52004;45.136;39.010;2023-04-24T02:14:18;11.46;68.16
65396;HTU21D;52004;45.136;39.010;2023-04-24T02:16:43;11.45;68.17
65396;HTU21D;52004;45.136;39.010;2023-04-24T02:19:09;11.44;68.21
65396;HTU21D;52004;45.136;39.010;2023-04-24T02:21:35;11.46;68.21
65396;HTU21D;52004;45.136;39.010;2023-04-24T02:24:01;11.48;68.23
65396;HTU21D;52004;45.136;39.010;2023-04-24T02:26:27;11.49;68.22
65396;HTU21D;52004;45.136;39.010;2023-04-24T02:28:53;11.48;68.20
65396;HTU21D;52004;45.136;39.010;2023-04-24T02:31:20;11.49;68.21
65396;HTU21D;52004;45.136;39.010;2023-04-24T02:33:47;11.51;68.24
65396;HTU21D;52004;45.136;39.010;2023-04-24T02:36:13;11.52;68.27
65396;HTU21D;52004;45.136;39.010;2023-04-24T02:38:39;11.52;68.27
65396;HTU21D;52004;45.136;39.010;2023-04-24T02:41:05;11.53;68.32
65396;HTU21D;52004;45.136;39.010;2023-04-24T02:43:32;11.55;68.33
65396;HTU21D;52004;45.136;39.010;2023-04-24T02:45:59;11.55;68.35
65396;HTU21D;52004;45.136;39.010;2023-04-24T02:48:25;11.58;68.36
65396;HTU21D;52004;45.136;39.010;2023-04-24T02:50:51;11.60;68.35
65396;HTU21D;52004;45.136;39.010;2023-04-24T02:53:17;11.61;68.34
65396;HTU21D;52004;45.136;39.010;2023-04-24T02:55:43;11.62;68.37
65396;HTU21D;52004;45.136;39.010;2023-04-24T02:58:09;11.64;68.39
65396;HTU21D;52004;45.136;39.010;2023-04-24T03:00:38;11.68;68.39
65396;HTU21D;52004;45.136;39.010;2023-04-24T03:03:04;11.70;68.39
65396;HTU21D;52004;45.136;39.010;2023-04-24T03:05:31;11.71;68.41
65396;HTU21D;52004;45.136;39.010;2023-04-24T03:07:57;11.75;68.43
65396;HTU21D;52004;45.136;39.010;2023-04-24T03:10:23;11.78;68.42
65396;HTU21D;52004;45.136;39.010;2023-04-24T03:12:48;11.82;68.43
65396;HTU21D;52004;45.136;39.010;2023-04-24T03:15:14;11.86;68.42
65396;HTU21D;52004;45.136;39.010;2023-04-24T03:17:41;11.87;68.42
65396;HTU21D;52004;45.136;39.010;2023-04-24T03:20:07;11.88;68.44
65396;HTU21D;52004;45.136;39.010;2023-04-24T04:55:12;12.87;68.86
65396;HTU21D;52004;45.136;39.010;2023-04-24T05:11:14;13.12;68.97
65396;HTU21D;52004;45.136;39.010;2023-04-24T05:13:41;13.17;69.04
65396;HTU21D;52004;45.136;39.010;2023-04-24T05:16:26;13.25;69.05
65396;HTU21D;52004;45.136;39.010;2023-04-24T05:18:53;13.31;69.06
65396;HTU21D;52004;45.136;39.010;2023-04-24T05:21:25;13.41;69.06
65396;HTU21D;52004;45.136;39.010;2023-04-24T05:23:53;13.48;69.03
65396;HTU21D;52004;45.136;39.010;2023-04-24T05:26:44;13.55;69.03
65396;HTU21D;52004;45.136;39.010;2023-04-24T05:29:13;13.62;68.95
65396;HTU21D;52004;45.136;39.010;2023-04-24T05:31:41;13.67;68.92
65396;HTU21D;52004;45.136;39.010;2023-04-24T05:34:07;13.70;68.89
65396;HTU21D;52004;45.136;39.010;2023-04-24T05:36:38;13.73;68.87
65396;HTU21D;52004;45.136;39.010;2023-04-24T05:39:04;13.73;68.86
65396;HTU21D;52004;45.136;39.010;2023-04-24T05:41:30;13.74;68.89
65396;HTU21D;52004;45.136;39.010;2023-04-24T05:43:56;13.75;68.90
65396;HTU21D;52004;45.136;39.010;2023-04-24T05:46:22;13.75;68.91
65396;HTU21D;52004;45.136;39.010;2023-04-24T05:48:49;0.00;68.91
65396;HTU21D;52004;45.136;39.010;2023-04-24T05:51:14;13.75;68.93
65396;HTU21D;52004;45.136;39.010;2023-04-24T05:53:40;13.75;68.94
65396;HTU21D;52004;45.136;39.010;2023-04-24T05:56:07;13.74;69.00
65396;HTU21D;52004;45.136;39.010;2023-04-24T05:58:34;13.75;69.06
65396;HTU21D;52004;45.136;39.010;2023-04-24T06:01:00;13.77;69.04
65396;HTU21D;52004;45.136;39.010;2023-04-24T06:03:27;13.78;69.08
65396;HTU21D;52004;45.136;39.010;2023-04-24T06:05:53;0.00;69.06
65396;HTU21D;52004;45.136;39.010;2023-04-24T06:08:21;13.80;69.10
65396;HTU21D;52004;45.136;39.010;2023-04-24T06:10:48;13.82;69.12
65396;HTU21D;52004;45.136;39.010;2023-04-24T06:13:16;13.83;69.12
65396;HTU21D;52004;45.136;39.010;2023-04-24T06:15:54;0.00;69.14
65396;HTU21D;52004;45.136;39.010;2023-04-24T06:18:29;13.85;69.16
65396;HTU21D;52004;45.136;39.010;2023-04-24T06:20:56;13.88;69.19
65396;HTU21D;52004;45.136;39.010;2023-04-24T06:23:23;13.88;69.21
65396;HTU21D;52004;45.136;39.010;2023-04-24T06:25:49;13.90;69.21
65396;HTU21D;52004;45.136;39.010;2023-04-24T06:28:15;0.00;69.23
65396;HTU21D;52004;45.136;39.010;2023-04-24T06:30:41;13.95;69.21
65396;HTU21D;52004;45.136;39.010;2023-04-24T06:33:07;14.00;69.23
65396;HTU21D;52004;45.136;39.010;2023-04-24T06:35:33;14.06;69.24
65396;HTU21D;52004;45.136;39.010;2023-04-24T06:37:59;14.11;69.22
65396;HTU21D;52004;45.136;39.010;2023-04-24T06:40:24;14.17;69.18
65396;HTU21D;52004;45.136;39.010;2023-04-24T06:42:50;14.22;69.16
65396;HTU21D;52004;45.136;39.010;2023-04-24T06:45:16;14.28;69.16
65396;HTU21D;52004;45.136;39.010;2023-04-24T06:47:42;14.34;69.17
65396;HTU21D;52004;45.136;39.010;2023-04-24T06:50:08;14.41;69.15
65396;HTU21D;52004;45.136;39.010;2023-04-24T06:52:34;14.47;69.15
65396;HTU21D;52004;45.136;39.010;2023-04-24T06:55:01;14.55;69.14
65396;HTU21D;52004;45.136;39.010;2023-04-24T06:57:28;14.60;69.14
65396;HTU21D;52004;45.136;39.010;2023-04-24T06:59:54;14.67;69.09
65396;HTU21D;52004;45.136;39.010;2023-04-24T07:02:20;14.68;69.02
65396;HTU21D;52004;45.136;39.010;2023-04-24T07:04:45;14.69;69.02
65396;HTU21D;52004;45.136;39.010;2023-04-24T07:07:13;14.72;69.02
65396;HTU21D;52004;45.136;39.010;2023-04-24T07:09:40;14.75;69.04
65396;HTU21D;52004;45.136;39.010;2023-04-24T07:12:09;0.00;69.12
65396;HTU21D;52004;45.136;39.010;2023-04-24T07:14:36;14.87;69.08
65396;HTU21D;52004;45.136;39.010;2023-04-24T07:17:05;14.93;69.10
65396;HTU21D;52004;45.136;39.010;2023-04-24T07:19:33;15.00;69.16
65396;HTU21D;52004;45.136;39.010;2023-04-24T07:21:59;15.10;69.27
65396;HTU21D;52004;45.136;39.010;2023-04-24T07:24:25;15.19;69.38
65396;HTU21D;52004;45.136;39.010;2023-04-24T07:26:51;15.34;69.47
65396;HTU21D;52004;45.136;39.010;2023-04-24T07:29:18;15.48;69.40
65396;HTU21D;52004;45.136;39.010;2023-04-24T07:31:44;15.60;69.45
65396;HTU21D;52004;45.136;39.010;2023-04-24T07:34:10;15.73;69.54
65396;HTU21D;52004;45.136;39.010;2023-04-24T07:36:36;15.87;69.47
65396;HTU21D;52004;45.136;39.010;2023-04-24T07:39:04;15.99;69.40
65396;HTU21D;52004;45.136;39.010;2023-04-24T07:41:31;16.12;69.53
65396;HTU21D;52004;45.136;39.010;2023-04-24T07:43:57;16.26;69.57
65396;HTU21D;52004;45.136;39.010;2023-04-24T07:46:49;16.44;69.41
65396;HTU21D;52004;45.136;39.010;2023-04-24T07:49:15;16.55;69.36
65396;HTU21D;52004;45.136;39.010;2023-04-24T07:51:40;16.66;69.22
65396;HTU21D;52004;45.136;39.010;2023-04-24T07:54:06;16.74;69.11
65396;HTU21D;52004;45.136;39.010;2023-04-24T07:56:33;16.79;68.96
65396;HTU21D;52004;45.136;39.010;2023-04-24T07:58:59;16.82;68.83
65396;HTU21D;52004;45.136;39.010;2023-04-24T08:01:26;16.85;68.63
65396;HTU21D;52004;45.136;39.010;2023-04-24T08:03:52;16.81;68.49
65396;HTU21D;52004;45.136;39.010;2023-04-24T08:06:18;0.00;68.41
65396;HTU21D;52004;45.136;39.010;2023-04-24T08:08:44;16.73;68.27
65396;HTU21D;52004;45.136;39.010;2023-04-24T08:11:10;16.66;68.19
65396;HTU21D;52004;45.136;39.010;2023-04-24T08:13:36;16.59;68.11
65396;HTU21D;52004;45.136;39.010;2023-04-24T08:16:02;16.50;68.20
65396;HTU21D;52004;45.136;39.010;2023-04-24T08:18:28;16.47;68.26
65396;HTU21D;52004;45.136;39.010;2023-04-24T08:20:54;16.46;68.32
65396;HTU21D;52004;45.136;39.010;2023-04-24T08:23:19;16.43;68.21
65396;HTU21D;52004;45.136;39.010;2023-04-24T08:25:45;16.39;68.17
65396;HTU21D;52004;45.136;39.010;2023-04-24T08:28:11;16.35;68.13
65396;HTU21D;52004;45.136;39.010;2023-04-24T08:30:38;16.30;68.10
65396;HTU21D;52004;45.136;39.010;2023-04-24T08:33:04;16.24;68.04
65396;HTU21D;52004;45.136;39.010;2023-04-24T08:35:29;16.16;68.10
65396;HTU21D;52004;45.136;39.010;2023-04-24T08:37:55;16.12;68.16
65396;HTU21D;52004;45.136;39.010;2023-04-24T08:40:22;16.08;68.10
65396;HTU21D;52004;45.136;39.010;2023-04-24T08:42:53;16.03;68.13
65396;HTU21D;52004;45.136;39.010;2023-04-24T08:45:20;15.96;68.14
65396;HTU21D;52004;45.136;39.010;2023-04-24T08:47:46;15.91;68.17
65396;HTU21D;52004;45.136;39.010;2023-04-24T08:50:12;15.86;68.23
65396;HTU21D;52004;45.136;39.010;2023-04-24T08:52:38;15.82;68.22
65396;HTU21D;52004;45.136;39.010;2023-04-24T08:55:04;15.76;68.21
65396;HTU21D;52004;45.136;39.010;2023-04-24T08:57:30;15.70;68.24
65396;HTU21D;52004;45.136;39.010;2023-04-24T08:59:56;15.60;68.26
65396;HTU21D;52004;45.136;39.010;2023-04-24T09:02:23;15.53;68.39
65396;HTU21D;52004;45.136;39.010;2023-04-24T09:04:49;15.47;68.44
65396;HTU21D;52004;45.136;39.010;2023-04-24T09:07:16;15.42;68.51
65396;HTU21D;52004;45.136;39.010;2023-04-24T09:09:42;15.40;68.52
65396;HTU21D;52004;45.136;39.010;2023-04-24T09:12:08;15.37;68.54
65396;HTU21D;52004;45.136;39.010;2023-04-24T09:14:36;15.36;68.61
65396;HTU21D;52004;45.136;39.010;2023-04-24T09:17:06;15.37;68.58
65396;HTU21D;52004;45.136;39.010;2023-04-24T09:19:31;15.37;68.61
65396;HTU21D;52004;45.136;39.010;2023-04-24T09:21:57;15.36;68.57
65396;HTU21D;52004;45.136;39.010;2023-04-24T09:24:23;15.30;68.48
65396;HTU21D;52004;45.136;39.010;2023-04-24T09:26:59;15.15;68.55
65396;HTU21D;52004;45.136;39.010;2023-04-24T09:29:27;15.01;68.69
65396;HTU21D;52004;45.136;39.010;2023-04-24T09:31:53;0.00;68.84
65396;HTU21D;52004;45.136;39.010;2023-04-24T09:34:22;14.87;68.91
65396;HTU21D;52004;45.136;39.010;2023-04-24T09:36:49;0.00;68.89
65396;HTU21D;52004;45.136;39.010;2023-04-24T09:39:15;14.70;68.99
65396;HTU21D;52004;45.136;39.010;2023-04-24T09:44:14;14.53;69.21
65396;HTU21D;52004;45.136;39.010;2023-04-24T09:46:41;14.49;69.34
65396;HTU21D;52004;45.136;39.010;2023-04-24T09:49:08;14.48;69.33
65396;HTU21D;52004;45.136;39.010;2023-04-24T09:51:35;14.48;69.42
65396;HTU21D;52004;45.136;39.010;2023-04-24T09:54:03;14.52;69.49
65396;HTU21D;52004;45.136;39.010;2023-04-24T09:56:32;0.00;69.42
65396;HTU21D;52004;45.136;39.010;2023-04-24T09:59:04;14.54;69.48
65396;HTU21D;52004;45.136;39.010;2023-04-24T10:01:30;14.51;69.51
65396;HTU21D;52004;45.136;39.010;2023-04-24T10:03:56;14.52;69.64
65396;HTU21D;52004;45.136;39.010;2023-04-24T10:06:22;14.56;69.69
65396;HTU21D;52004;45.136;39.010;2023-04-24T10:08:48;14.56;69.55
65396;HTU21D;52004;45.136;39.010;2023-04-24T10:11:16;14.57;69.60
65396;HTU21D;52004;45.136;39.010;2023-04-24T10:13:42;14.57;69.55
65396;HTU21D;52004;45.136;39.010;2023-04-24T10:16:08;14.59;69.55
65396;HTU21D;52004;45.136;39.010;2023-04-24T10:18:35;14.57;69.57
65396;HTU21D;52004;45.136;39.010;2023-04-24T10:21:01;14.55;69.56
65396;HTU21D;52004;45.136;39.010;2023-04-24T10:23:28;14.53;69.49
65396;HTU21D;52004;45.136;39.010;2023-04-24T10:25:54;14.47;69.53
65396;HTU21D;52004;45.136;39.010;2023-04-24T10:28:20;14.44;69.61
65396;HTU21D;52004;45.136;39.010;2023-04-24T10:30:46;14.44;69.62
65396;HTU21D;52004;45.136;39.010;2023-04-24T10:33:13;14.47;69.65
65396;HTU21D;52004;45.136;39.010;2023-04-24T10:35:40;14.50;69.60
65396;HTU21D;52004;45.136;39.010;2023-04-24T10:38:13;14.51;69.55
65396;HTU21D;52004;45.136;39.010;2023-04-24T10:40:39;14.50;69.49
65396;HTU21D;52004;45.136;39.010;2023-04-24T10:43:05;14.51;69.62
65396;HTU21D;52004;45.136;39.010;2023-04-24T10:45:33;14.54;69.64
65396;HTU21D;52004;45.136;39.010;2023-04-24T10:48:01;14.55;69.68
65396;HTU21D;52004;45.136;39.010;2023-04-24T10:50:28;14.54;69.61
65396;HTU21D;52004;45.136;39.010;2023-04-24T10:53:04;14.51;69.64
65396;HTU21D;52004;45.136;39.010;2023-04-24T10:55:44;14.45;69.71
65396;HTU21D;52004;45.136;39.010;2023-04-24T10:58:10;14.43;69.74
65396;HTU21D;52004;45.136;39.010;2023-04-24T11:00:38;14.36;69.80
65396;HTU21D;52004;45.136;39.010;2023-04-24T11:03:07;14.35;69.92
65396;HTU21D;52004;45.136;39.010;2023-04-24T11:06:35;14.37;69.97
65396;HTU21D;52004;45.136;39.010;2023-04-24T11:11:02;14.45;69.94
65396;HTU21D;52004;45.136;39.010;2023-04-24T11:16:14;14.41;69.95
65396;HTU21D;52004;45.136;39.010;2023-04-24T11:18:44;0.00;70.02
65396;HTU21D;52004;45.136;39.010;2023-04-24T11:21:16;14.50;69.97
65396;HTU21D;52004;45.136;39.010;2023-04-24T11:23:42;14.53;69.96
65396;HTU21D;52004;45.136;39.010;2023-04-24T11:26:12;14.55;69.94
65396;HTU21D;52004;45.136;39.010;2023-04-24T11:28:44;14.55;69.88
65396;HTU21D;52004;45.136;39.010;2023-04-24T11:33:54;14.52;69.91
65396;HTU21D;52004;45.136;39.010;2023-04-24T11:36:20;14.50;69.92
65396;HTU21D;52004;45.136;39.010;2023-04-24T11:38:46;14.51;69.93
65396;HTU21D;52004;45.136;39.010;2023-04-24T11:41:12;14.50;69.97
65396;HTU21D;52004;45.136;39.010;2023-04-24T11:43:38;14.49;69.90
65396;HTU21D;52004;45.136;39.010;2023-04-24T11:46:05;14.45;69.97
65396;HTU21D;52004;45.136;39.010;2023-04-24T11:48:34;14.42;69.98
65396;HTU21D;52004;45.136;39.010;2023-04-24T11:51:01;14.37;70.01
65396;HTU21D;52004;45.136;39.010;2023-04-24T11:53:27;14.35;70.07
65396;HTU21D;52004;45.136;39.010;2023-04-24T11:55:53;0.00;70.10
65396;HTU21D;52004;45.136;39.010;2023-04-24T12:22:56;14.26;70.30
65396;HTU21D;52004;45.136;39.010;2023-04-24T12:25:24;14.26;70.35
65396;HTU21D;52004;45.136;39.010;2023-04-24T12:27:54;14.24;70.37
65396;HTU21D;52004;45.136;39.010;2023-04-24T12:30:21;14.23;70.48
65396;HTU21D;52004;45.136;39.010;2023-04-24T12:32:51;14.25;70.49
65396;HTU21D;52004;45.136;39.010;2023-04-24T12:47:09;14.22;70.55
65396;HTU21D;52004;45.136;39.010;2023-04-24T12:49:35;14.21;70.64
65396;HTU21D;52004;45.136;39.010;2023-04-24T12:52:01;14.22;70.65
65396;HTU21D;52004;45.136;39.010;2023-04-24T12:54:31;14.23;70.67
65396;HTU21D;52004;45.136;39.010;2023-04-24T12:56:57;14.24;70.65
65396;HTU21D;52004;45.136;39.010;2023-04-24T12:59:23;14.23;70.65
65396;HTU21D;52004;45.136;39.010;2023-04-24T13:01:50;14.21;70.65
65396;HTU21D;52004;45.136;39.010;2023-04-24T13:04:16;14.19;70.70
65396;HTU21D;52004;45.136;39.010;2023-04-24T13:06:42;14.15;70.72
65396;HTU21D;52004;45.136;39.010;2023-04-24T13:09:08;14.12;70.72
65396;HTU21D;52004;45.136;39.010;2023-04-24T13:11:35;14.08;70.80
65396;HTU21D;52004;45.136;39.010;2023-04-24T13:14:01;14.06;70.86
65396;HTU21D;52004;45.136;39.010;2023-04-24T13:16:27;14.07;70.93
65396;HTU21D;52004;45.136;39.010;2023-04-24T13:18:52;14.07;70.96
65396;HTU21D;52004;45.136;39.010;2023-04-24T13:21:18;14.08;70.93
65396;HTU21D;52004;45.136;39.010;2023-04-24T13:23:44;14.09;70.94
65396;HTU21D;52004;45.136;39.010;2023-04-24T13:26:10;14.13;70.97
65396;HTU21D;52004;45.136;39.010;2023-04-24T13:28:36;14.14;70.97
65396;HTU21D;52004;45.136;39.010;2023-04-24T13:31:03;14.19;71.00
65396;HTU21D;52004;45.136;39.010;2023-04-24T13:33:29;14.20;71.00
65396;HTU21D;52004;45.136;39.010;2023-04-24T13:35:55;14.23;71.00
65396;HTU21D;52004;45.136;39.010;2023-04-24T13:38:21;14.26;70.98
65396;HTU21D;52004;45.136;39.010;2023-04-24T13:40:47;14.28;70.97
65396;HTU21D;52004;45.136;39.010;2023-04-24T13:43:13;0.00;71.02
65396;HTU21D;52004;45.136;39.010;2023-04-24T13:45:40;14.33;71.01
65396;HTU21D;52004;45.136;39.010;2023-04-24T13:48:06;0.00;71.01
65396;HTU21D;52004;45.136;39.010;2023-04-24T13:53:24;14.39;71.00
65396;HTU21D;52004;45.136;39.010;2023-04-24T13:55:50;14.42;71.06
65396;HTU21D;52004;45.136;39.010;2023-04-24T13:58:16;14.42;70.99
65396;HTU21D;52004;45.136;39.010;2023-04-24T14:00:42;0.00;71.06
65396;HTU21D;52004;45.136;39.010;2023-04-24T14:03:08;14.44;71.09
65396;HTU21D;52004;45.136;39.010;2023-04-24T14:05:34;0.00;71.10
65396;HTU21D;52004;45.136;39.010;2023-04-24T14:08:00;14.47;71.15
65396;HTU21D;52004;45.136;39.010;2023-04-24T14:10:26;14.50;71.26
65396;HTU21D;52004;45.136;39.010;2023-04-24T14:12:52;14.51;71.32
65396;HTU21D;52004;45.136;39.010;2023-04-24T14:15:19;14.57;71.35
65396;HTU21D;52004;45.136;39.010;2023-04-24T14:17:45;0.00;71.32
65396;HTU21D;52004;45.136;39.010;2023-04-24T14:20:11;0.00;71.30
65396;HTU21D;52004;45.136;39.010;2023-04-24T14:22:37;14.66;71.32
65396;HTU21D;52004;45.136;39.010;2023-04-24T14:25:04;14.72;71.37
65396;HTU21D;52004;45.136;39.010;2023-04-24T14:27:31;14.80;71.30
65396;HTU21D;52004;45.136;39.010;2023-04-24T14:29:57;14.83;71.25
65396;HTU21D;52004;45.136;39.010;2023-04-24T14:32:23;14.85;71.17
65396;HTU21D;52004;45.136;39.010;2023-04-24T14:34:49;14.89;71.18
65396;HTU21D;52004;45.136;39.010;2023-04-24T14:37:15;14.91;71.13
65396;HTU21D;52004;45.136;39.010;2023-04-24T14:39:41;14.92;71.13
65396;HTU21D;52004;45.136;39.010;2023-04-24T14:42:06;14.92;71.04
65396;HTU21D;52004;45.136;39.010;2023-04-24T14:44:32;0.00;71.06
65396;HTU21D;52004;45.136;39.010;2023-04-24T14:46:59;14.82;71.03
65396;HTU21D;52004;45.136;39.010;2023-04-24T14:49:25;14.73;71.10
65396;HTU21D;52004;45.136;39.010;2023-04-24T14:51:51;14.69;71.15
65396;HTU21D;52004;45.136;39.010;2023-04-24T14:54:17;14.65;71.15
65396;HTU21D;52004;45.136;39.010;2023-04-24T14:56:43;14.64;71.14
65396;HTU21D;52004;45.136;39.010;2023-04-24T14:59:10;14.63;71.09
65396;HTU21D;52004;45.136;39.010;2023-04-24T15:01:35;14.60;71.12
65396;HTU21D;52004;45.136;39.010;2023-04-24T15:04:01;14.59;71.09
65396;HTU21D;52004;45.136;39.010;2023-04-24T15:06:27;0.00;71.10
65396;HTU21D;52004;45.136;39.010;2023-04-24T15:08:53;14.53;71.15
65396;HTU21D;52004;45.136;39.010;2023-04-24T15:11:19;14.54;71.15
65396;HTU21D;52004;45.136;39.010;2023-04-24T15:13:45;14.52;71.11
65396;HTU21D;52004;45.136;39.010;2023-04-24T15:16:11;14.50;71.17
65396;HTU21D;52004;45.136;39.010;2023-04-24T15:18:37;14.48;71.17
65396;HTU21D;52004;45.136;39.010;2023-04-24T15:21:03;14.45;71.16
65396;HTU21D;52004;45.136;39.010;2023-04-24T15:23:29;14.43;71.17
65396;HTU21D;52004;45.136;39.010;2023-04-24T15:25:55;14.40;71.19
65396;HTU21D;52004;45.136;39.010;2023-04-24T15:28:21;14.35;71.24
65396;HTU21D;52004;45.136;39.010;2023-04-24T15:30:47;14.34;71.29
65396;HTU21D;52004;45.136;39.010;2023-04-24T15:33:13;14.33;71.31
65396;HTU21D;52004;45.136;39.010;2023-04-24T15:35:42;14.33;71.31
65396;HTU21D;52004;45.136;39.010;2023-04-24T15:38:08;14.28;71.32
65396;HTU21D;52004;45.136;39.010;2023-04-24T15:40:34;14.24;71.29
65396;HTU21D;52004;45.136;39.010;2023-04-24T15:43:00;14.21;71.31
65396;HTU21D;52004;45.136;39.010;2023-04-24T15:45:25;14.20;71.32
65396;HTU21D;52004;45.136;39.010;2023-04-24T15:47:53;0.00;71.35
65396;HTU21D;52004;45.136;39.010;2023-04-24T15:50:19;14.15;71.34
65396;HTU21D;52004;45.136;39.010;2023-04-24T15:52:47;14.15;71.29
65396;HTU21D;52004;45.136;39.010;2023-04-24T15:55:13;14.11;71.33
65396;HTU21D;52004;45.136;39.010;2023-04-24T15:57:39;14.09;71.37
65396;HTU21D;52004;45.136;39.010;2023-04-24T16:00:05;14.06;71.45
65396;HTU21D;52004;45.136;39.010;2023-04-24T16:02:38;14.05;71.43
65396;HTU21D;52004;45.136;39.010;2023-04-24T16:05:04;14.04;71.42
65396;HTU21D;52004;45.136;39.010;2023-04-24T16:07:32;14.00;71.41
65396;HTU21D;52004;45.136;39.010;2023-04-24T16:09:58;13.98;71.42
65396;HTU21D;52004;45.136;39.010;2023-04-24T16:12:24;13.95;71.46
65396;HTU21D;52004;45.136;39.010;2023-04-24T16:14:52;13.95;71.47
65396;HTU21D;52004;45.136;39.010;2023-04-24T16:17:19;13.94;71.43
65396;HTU21D;52004;45.136;39.010;2023-04-24T16:19:45;13.91;71.45
65396;HTU21D;52004;45.136;39.010;2023-04-24T16:22:11;13.91;71.47
65396;HTU21D;52004;45.136;39.010;2023-04-24T16:24:37;13.90;71.49
65396;HTU21D;52004;45.136;39.010;2023-04-24T16:27:03;13.89;71.50
65396;HTU21D;52004;45.136;39.010;2023-04-24T16:29:29;13.88;71.52
65396;HTU21D;52004;45.136;39.010;2023-04-24T16:31:55;13.90;71.54
65396;HTU21D;52004;45.136;39.010;2023-04-24T16:34:21;13.89;71.53
65396;HTU21D;52004;45.136;39.010;2023-04-24T16:36:46;13.88;71.53
65396;HTU21D;52004;45.136;39.010;2023-04-24T16:39:12;13.88;71.54
65396;HTU21D;52004;45.136;39.010;2023-04-24T16:41:39;13.86;71.58
65396;HTU21D;52004;45.136;39.010;2023-04-24T16:44:05;13.84;71.61
65396;HTU21D;52004;45.136;39.010;2023-04-24T16:46:30;13.81;71.69
65396;HTU21D;52004;45.136;39.010;2023-04-24T16:48:56;13.78;71.77
65396;HTU21D;52004;45.136;39.010;2023-04-24T16:51:22;13.78;71.82
65396;HTU21D;52004;45.136;39.010;2023-04-24T16:53:48;13.79;71.81
65396;HTU21D;52004;45.136;39.010;2023-04-24T16:56:14;13.78;71.80
65396;HTU21D;52004;45.136;39.010;2023-04-24T16:58:40;13.76;71.81
65396;HTU21D;52004;45.136;39.010;2023-04-24T17:01:06;13.75;71.80
65396;HTU21D;52004;45.136;39.010;2023-04-24T17:03:32;13.73;71.79
65396;HTU21D;52004;45.136;39.010;2023-04-24T17:05:58;13.73;71.86
65396;HTU21D;52004;45.136;39.010;2023-04-24T17:08:24;13.71;71.88
65396;HTU21D;52004;45.136;39.010;2023-04-24T17:10:50;13.70;71.90
65396;HTU21D;52004;45.136;39.010;2023-04-24T17:13:15;13.68;71.90
65396;HTU21D;52004;45.136;39.010;2023-04-24T17:15:41;13.70;71.89
65396;HTU21D;52004;45.136;39.010;2023-04-24T17:18:07;13.69;71.90
65396;HTU21D;52004;45.136;39.010;2023-04-24T17:20:33;13.70;71.90
65396;HTU21D;52004;45.136;39.010;2023-04-24T17:22:59;13.71;71.88
65396;HTU21D;52004;45.136;39.010;2023-04-24T17:25:25;13.71;71.89
65396;HTU21D;52004;45.136;39.010;2023-04-24T17:27:51;13.71;71.92
65396;HTU21D;52004;45.136;39.010;2023-04-24T17:30:18;13.75;71.90
65396;HTU21D;52004;45.136;39.010;2023-04-24T17:32:44;13.76;71.86
65396;HTU21D;52004;45.136;39.010;2023-04-24T17:35:10;13.78;71.84